createdAt,value
2023-01-28T00:00:26.573Z,24.74
2023-01-28T00:03:18.315Z,24.76
2023-01-28T00:06:08.472Z,24.82
2023-01-28T00:08:57.241Z,24.82
2023-01-28T00:11:46.095Z,24.87
2023-01-28T00:14:34.825Z,24.80
2023-01-28T00:17:24.871Z,24.77
2023-01-28T00:20:14.064Z,24.75
2023-01-28T00:23:02.866Z,24.73
2023-01-28T00:25:51.599Z,24.74
2023-01-28T00:28:40.209Z,24.73
2023-01-28T00:31:29.612Z,24.78
2023-01-28T00:34:19.746Z,24.84
2023-01-28T00:37:08.476Z,24.77
2023-01-28T00:39:57.152Z,24.77
2023-01-28T00:42:45.911Z,24.73
2023-01-28T00:45:34.572Z,24.74
2023-01-28T00:48:23.232Z,24.75
2023-01-28T00:51:14.856Z,24.77
2023-01-28T00:54:03.478Z,24.81
2023-01-28T00:56:53.536Z,24.74
2023-01-28T00:59:42.202Z,24.75
2023-01-28T01:02:30.889Z,24.78
2023-01-28T01:05:19.577Z,24.75
2023-01-28T01:08:09.714Z,24.74
2023-01-28T01:11:00.478Z,24.73
2023-01-28T01:13:52.653Z,24.70
2023-01-28T01:16:41.308Z,24.79
2023-01-28T01:19:29.890Z,24.73
2023-01-28T01:22:18.490Z,24.70
2023-01-28T01:25:10.465Z,24.69
2023-01-28T01:27:59.147Z,24.67
2023-01-28T01:30:47.811Z,24.67
2023-01-28T01:33:36.760Z,24.72
2023-01-28T01:36:25.926Z,24.71
2023-01-28T01:39:14.639Z,24.70
2023-01-28T01:42:04.976Z,24.67
2023-01-28T01:45:01.647Z,24.66
2023-01-28T01:47:55.003Z,24.68
2023-01-28T01:50:47.141Z,24.58
2023-01-28T01:53:36.017Z,24.66
2023-01-28T01:56:27.446Z,24.61
2023-01-28T01:59:19.883Z,24.65
2023-01-28T02:02:09.560Z,24.65
2023-01-28T02:04:58.148Z,24.69
2023-01-28T02:07:48.213Z,24.68
2023-01-28T02:10:36.806Z,24.73
2023-01-28T02:13:28.797Z,24.74
2023-01-28T02:16:19.097Z,24.75
2023-01-28T02:19:08.257Z,24.78
2023-01-28T02:22:08.167Z,24.80
2023-01-28T02:25:23.581Z,24.78
2023-01-28T02:28:19.933Z,24.78
2023-01-28T02:31:12.861Z,24.69
2023-01-28T02:34:08.575Z,24.78
2023-01-28T02:37:01.472Z,24.81
2023-01-28T02:39:53.213Z,24.81
2023-01-28T02:42:42.859Z,24.72
2023-01-28T02:45:49.241Z,24.80
2023-01-28T02:48:37.871Z,24.76
2023-01-28T02:51:33.355Z,24.76
2023-01-28T02:54:30.987Z,24.82
2023-01-28T02:57:34.200Z,24.74
2023-01-28T03:00:27.556Z,24.78
2023-01-28T03:03:22.379Z,24.73
2023-01-28T03:06:13.776Z,24.77
2023-01-28T03:09:21.958Z,24.75
2023-01-28T03:12:30.360Z,24.70
2023-01-28T03:15:39.805Z,24.71
2023-01-28T03:18:50.347Z,24.70
2023-01-28T03:22:00.743Z,24.65
2023-01-28T03:25:09.341Z,24.66
2023-01-28T03:28:20.282Z,24.68
2023-01-28T03:31:28.578Z,24.65
2023-01-28T03:34:36.712Z,24.67
2023-01-28T03:37:26.907Z,24.68
2023-01-28T03:40:15.861Z,24.69
2023-01-28T03:43:04.669Z,24.68
2023-01-28T03:45:53.626Z,24.66
2023-01-28T03:48:42.295Z,24.72
2023-01-28T03:51:32.376Z,24.76
2023-01-28T03:54:20.990Z,24.73
2023-01-28T03:57:09.675Z,24.70
2023-01-28T03:59:58.288Z,24.68
2023-01-28T04:02:49.641Z,24.64
2023-01-28T04:05:38.294Z,24.70
2023-01-28T04:08:28.512Z,24.71
2023-01-28T04:11:19.316Z,24.72
2023-01-28T04:14:08.023Z,24.71
2023-01-28T04:16:56.852Z,24.70
2023-01-28T04:19:45.498Z,24.71
2023-01-28T04:22:34.103Z,24.62
2023-01-28T04:25:24.041Z,24.71
2023-01-28T04:28:12.597Z,24.70
2023-01-28T04:31:01.407Z,24.71
2023-01-28T04:33:50.070Z,24.67
2023-01-28T04:36:38.814Z,24.67
2023-01-28T04:39:27.467Z,24.65
2023-01-28T04:42:17.411Z,24.65
2023-01-28T04:45:06.902Z,24.65
2023-01-28T04:47:55.501Z,24.63
2023-01-28T04:50:44.435Z,24.64
2023-01-28T04:53:33.112Z,24.66
2023-01-28T04:56:21.722Z,24.75
2023-01-28T04:59:11.724Z,24.78
2023-01-28T05:02:00.436Z,24.73
2023-01-28T05:04:49.032Z,24.78
2023-01-28T05:07:37.751Z,24.71
2023-01-28T05:10:27.519Z,24.74
2023-01-28T05:13:16.102Z,24.70
2023-01-28T05:16:06.622Z,24.68
2023-01-28T05:18:55.267Z,24.69
2023-01-28T05:21:43.948Z,24.65
2023-01-28T05:24:32.611Z,24.64
2023-01-28T05:27:21.406Z,24.64
2023-01-28T05:30:11.289Z,24.68
2023-01-28T05:33:01.253Z,24.75
2023-01-28T05:35:50.011Z,24.71
2023-01-28T05:38:38.575Z,24.76
2023-01-28T05:41:27.210Z,24.69
2023-01-28T05:44:15.713Z,24.66
2023-01-28T05:47:04.532Z,24.68
2023-01-28T05:49:54.580Z,24.67
2023-01-28T05:52:43.202Z,24.67
2023-01-28T05:55:31.781Z,24.76
2023-01-28T05:58:20.778Z,24.67
2023-01-28T06:01:09.390Z,24.66
2023-01-28T06:03:59.150Z,24.63
2023-01-28T06:06:49.204Z,24.64
2023-01-28T06:09:37.797Z,24.65
2023-01-28T06:12:26.446Z,24.67
2023-01-28T06:15:15.147Z,24.66
2023-01-28T06:18:03.886Z,24.64
2023-01-28T06:20:52.487Z,24.61
2023-01-28T06:23:42.571Z,24.66
2023-01-28T06:26:31.140Z,24.62
2023-01-28T06:29:19.960Z,24.68
2023-01-28T06:32:08.614Z,24.63
2023-01-28T06:34:57.560Z,24.60
2023-01-28T06:37:46.496Z,24.65
2023-01-28T06:40:36.478Z,24.55
2023-01-28T06:43:27.638Z,24.62
2023-01-28T06:46:16.270Z,24.66
2023-01-28T06:49:05.239Z,24.68
2023-01-28T06:51:53.808Z,24.73
2023-01-28T06:54:42.487Z,24.64
2023-01-28T06:57:32.505Z,24.59
2023-01-28T07:00:21.902Z,24.60
2023-01-28T07:03:10.605Z,24.54
2023-01-28T07:05:59.231Z,24.62
2023-01-28T07:08:47.905Z,24.63
2023-01-28T07:11:36.494Z,24.68
2023-01-28T07:14:26.516Z,24.70
2023-01-28T07:17:15.245Z,24.58
2023-01-28T07:20:03.949Z,24.63
2023-01-28T07:22:52.604Z,24.62
2023-01-28T07:25:41.209Z,24.59
2023-01-28T07:28:29.864Z,24.62
2023-01-28T07:31:19.950Z,24.61
2023-01-28T07:34:08.594Z,24.55
2023-01-28T07:36:57.608Z,24.60
2023-01-28T07:39:46.341Z,24.70
2023-01-28T07:42:34.957Z,24.57
2023-01-28T07:45:23.814Z,24.64
2023-01-28T07:48:14.936Z,24.61
2023-01-28T07:51:03.541Z,24.60
2023-01-28T07:53:52.132Z,24.59
2023-01-28T07:56:40.688Z,24.57
2023-01-28T07:59:29.316Z,24.54
2023-01-28T08:02:18.399Z,24.53
2023-01-28T08:05:09.356Z,24.55
2023-01-28T08:07:59.366Z,24.54
2023-01-28T08:10:48.137Z,24.56
2023-01-28T08:13:36.812Z,24.52
2023-01-28T08:16:25.373Z,24.54
2023-01-28T08:19:13.983Z,24.51
2023-01-28T08:22:03.985Z,24.51
2023-01-28T08:24:52.593Z,24.51
2023-01-28T08:27:41.392Z,24.54
2023-01-28T08:30:30.119Z,24.55
2023-01-28T08:33:19.870Z,24.50
2023-01-28T08:36:09.372Z,24.47
2023-01-28T08:38:59.390Z,24.52
2023-01-28T08:41:48.054Z,24.46
2023-01-28T08:44:36.722Z,24.51
2023-01-28T08:47:25.668Z,24.45
2023-01-28T08:50:14.483Z,24.49
2023-01-28T08:53:05.249Z,24.50
2023-01-28T08:55:56.046Z,24.47
2023-01-28T08:58:45.052Z,24.49
2023-01-28T09:01:34.103Z,24.48
2023-01-28T09:04:22.835Z,24.43
2023-01-28T09:07:11.424Z,24.45
2023-01-28T09:10:02.203Z,24.47
2023-01-28T09:12:52.169Z,24.43
2023-01-28T09:15:40.809Z,24.44
2023-01-28T09:18:29.549Z,24.45
2023-01-28T09:21:18.257Z,24.43
2023-01-28T09:24:07.329Z,24.42
2023-01-28T09:26:55.971Z,24.37
2023-01-28T09:29:46.023Z,24.30
2023-01-28T09:32:34.713Z,24.29
2023-01-28T09:35:23.920Z,24.25
2023-01-28T09:38:12.526Z,24.20
2023-01-28T09:41:01.126Z,24.31
2023-01-28T09:43:59.315Z,24.32
2023-01-28T09:46:49.470Z,24.47
2023-01-28T09:49:42.027Z,24.51
2023-01-28T09:52:32.622Z,24.60
2023-01-28T09:55:26.337Z,24.43
2023-01-28T09:58:18.108Z,24.43
2023-01-28T10:01:23.098Z,24.35
2023-01-28T10:04:23.351Z,24.13
2023-01-28T10:07:29.363Z,24.18
2023-01-28T10:10:20.877Z,24.26
2023-01-28T10:13:21.887Z,24.34
2023-01-28T10:16:21.305Z,24.35
2023-01-28T10:19:21.520Z,24.36
2023-01-28T10:22:15.194Z,24.37
2023-01-28T10:25:07.031Z,24.39
2023-01-28T10:27:55.743Z,24.37
2023-01-28T10:30:45.269Z,24.42
2023-01-28T10:33:39.976Z,24.43
2023-01-28T10:36:31.010Z,24.41
2023-01-28T10:39:22.183Z,24.42
2023-01-28T10:42:19.642Z,24.49
2023-01-28T10:45:15.604Z,24.45
2023-01-28T10:48:08.926Z,24.42
2023-01-28T10:51:01.814Z,24.36
2023-01-28T10:53:51.904Z,24.40
2023-01-28T10:56:42.244Z,24.42
2023-01-28T10:59:32.827Z,24.42
2023-01-28T11:02:28.795Z,24.51
2023-01-28T11:05:20.862Z,24.53
2023-01-28T11:08:16.778Z,24.53
2023-01-28T11:11:16.049Z,24.44
2023-01-28T11:14:04.738Z,24.37
2023-01-28T11:16:55.593Z,24.48
2023-01-28T11:19:44.278Z,24.35
2023-01-28T11:22:35.220Z,24.33
2023-01-28T11:25:31.704Z,24.28
2023-01-28T11:28:23.395Z,24.18
2023-01-28T11:31:16.101Z,24.25
2023-01-28T11:34:09.231Z,24.10
2023-01-28T11:37:05.910Z,23.99
2023-01-28T11:40:05.452Z,23.97
2023-01-28T11:42:58.186Z,23.90
2023-01-28T11:45:59.464Z,23.82
2023-01-28T11:48:54.951Z,23.85
2023-01-28T11:51:49.888Z,23.84
2023-01-28T11:54:47.252Z,23.82
2023-01-28T11:57:39.981Z,23.82
2023-01-28T12:00:39.516Z,23.84
2023-01-28T12:03:57.599Z,23.78
2023-01-28T12:06:58.551Z,23.79
2023-01-28T12:09:54.783Z,23.82
2023-01-28T12:13:02.491Z,23.73
2023-01-28T12:16:24.650Z,23.84
2023-01-28T12:19:39.838Z,23.77
2023-01-28T12:22:46.740Z,23.83
2023-01-28T12:25:46.769Z,23.79
2023-01-28T12:28:57.777Z,23.76
2023-01-28T12:32:01.102Z,23.72
2023-01-28T12:35:19.694Z,23.74
2023-01-28T12:38:11.285Z,23.70
2023-01-28T12:41:04.104Z,23.72
2023-01-28T12:43:59.251Z,23.70
2023-01-28T12:46:56.775Z,23.73
2023-01-28T12:49:48.636Z,23.78
2023-01-28T12:52:41.398Z,24.05
2023-01-28T12:55:40.565Z,24.08
2023-01-28T12:58:39.071Z,23.85
2023-01-28T13:01:31.513Z,23.85
2023-01-28T13:04:26.962Z,23.77
2023-01-28T13:07:18.180Z,23.76
2023-01-28T13:10:15.403Z,23.72
2023-01-28T13:13:07.764Z,23.68
2023-01-28T13:15:56.536Z,23.62
2023-01-28T13:18:46.714Z,23.73
2023-01-28T13:21:48.675Z,23.67
2023-01-28T13:24:37.630Z,23.71
2023-01-28T13:27:29.671Z,23.71
2023-01-28T13:30:26.297Z,23.83
2023-01-28T13:33:30.957Z,23.92
2023-01-28T13:36:26.388Z,24.14
2023-01-28T13:39:20.141Z,24.34
2023-01-28T13:42:28.074Z,24.36
2023-01-28T13:45:26.403Z,24.43
2023-01-28T13:48:24.875Z,24.40
2023-01-28T13:51:19.508Z,24.34
2023-01-28T13:54:09.881Z,24.51
2023-01-28T13:57:14.422Z,24.57
2023-01-28T14:00:09.448Z,24.60
2023-01-28T14:03:33.986Z,24.55
2023-01-28T14:06:37.195Z,24.56
2023-01-28T14:09:37.123Z,24.65
2023-01-28T14:12:48.263Z,24.62
2023-01-28T14:15:59.141Z,24.65
2023-01-28T14:18:47.817Z,24.64
2023-01-28T14:21:36.969Z,24.65
2023-01-28T14:24:25.831Z,24.72
2023-01-28T14:27:18.003Z,24.84
2023-01-28T14:30:13.783Z,24.90
2023-01-28T14:33:03.810Z,24.89
2023-01-28T14:35:52.526Z,24.89
2023-01-28T14:38:43.123Z,24.68
2023-01-28T14:41:31.904Z,24.54
2023-01-28T14:44:29.401Z,24.33
2023-01-28T14:47:37.387Z,24.39
2023-01-28T14:50:36.546Z,24.39
2023-01-28T14:53:54.867Z,24.33
2023-01-28T14:56:55.598Z,24.40
2023-01-28T14:59:47.179Z,24.43
2023-01-28T15:02:35.871Z,24.47
2023-01-28T15:05:27.582Z,24.44
2023-01-28T15:08:23.599Z,24.53
2023-01-28T15:11:15.303Z,24.59
2023-01-28T15:14:04.399Z,24.66
2023-01-28T15:16:54.413Z,24.71
2023-01-28T15:19:43.278Z,24.66
2023-01-28T15:22:32.169Z,24.65
2023-01-28T15:25:24.365Z,24.67
2023-01-28T15:28:19.452Z,24.56
2023-01-28T15:31:08.492Z,24.68
2023-01-28T15:33:58.701Z,24.71
2023-01-28T15:36:49.604Z,24.68
2023-01-28T15:39:38.279Z,24.64
2023-01-28T15:42:29.440Z,24.64
2023-01-28T15:45:19.794Z,24.58
2023-01-28T15:48:08.989Z,24.72
2023-01-28T15:51:03.203Z,24.77
2023-01-28T15:53:53.891Z,24.65
2023-01-28T15:56:42.593Z,24.45
2023-01-28T15:59:34.028Z,24.74
2023-01-28T16:02:24.217Z,24.64
2023-01-28T16:05:27.724Z,24.62
2023-01-28T16:08:21.753Z,24.64
2023-01-28T16:11:11.731Z,24.64
2023-01-28T16:14:01.045Z,24.55
2023-01-28T16:16:51.923Z,24.64
2023-01-28T16:19:41.981Z,24.71
2023-01-28T16:22:36.200Z,24.66
2023-01-28T16:25:28.052Z,24.74
2023-01-28T16:28:21.390Z,24.78
2023-01-28T16:31:13.185Z,24.49
2023-01-28T16:34:03.879Z,24.58
2023-01-28T16:36:52.849Z,24.74
2023-01-28T16:39:49.965Z,24.73
2023-01-28T16:42:40.134Z,24.69
2023-01-28T16:45:29.127Z,24.70
2023-01-28T16:48:17.834Z,24.72
2023-01-28T16:51:08.159Z,25.02
2023-01-28T16:53:56.899Z,25.13
2023-01-28T16:56:46.865Z,25.06
2023-01-28T16:59:35.675Z,25.07
2023-01-28T17:02:25.643Z,25.19
2023-01-28T17:05:15.785Z,24.76
2023-01-28T17:08:23.122Z,24.75
2023-01-28T17:11:11.889Z,25.07
2023-01-28T17:14:00.856Z,25.02
2023-01-28T17:16:49.653Z,25.21
2023-01-28T17:19:38.470Z,25.23
2023-01-28T17:22:28.284Z,25.09
2023-01-28T17:25:18.829Z,25.18
2023-01-28T17:28:08.196Z,25.31
2023-01-28T17:30:57.176Z,25.42
2023-01-28T17:33:47.115Z,25.11
2023-01-28T17:36:36.263Z,24.85
2023-01-28T17:39:25.778Z,24.74
2023-01-28T17:42:17.298Z,24.75
2023-01-28T17:45:07.476Z,24.73
2023-01-28T17:47:56.601Z,24.78
2023-01-28T17:50:45.570Z,24.80
2023-01-28T17:53:34.774Z,24.68
2023-01-28T17:56:25.997Z,24.69
2023-01-28T17:59:17.542Z,24.64
2023-01-28T18:02:07.035Z,24.60
2023-01-28T18:04:56.388Z,24.49
2023-01-28T18:07:46.045Z,24.42
2023-01-28T18:10:35.263Z,24.34
2023-01-28T18:13:24.198Z,24.26
2023-01-28T18:16:16.195Z,24.18
2023-01-28T18:19:06.235Z,24.17
2023-01-28T18:21:56.061Z,24.07
2023-01-28T18:24:44.712Z,24.07
2023-01-28T18:27:33.313Z,23.95
2023-01-28T18:30:22.124Z,23.98
2023-01-28T18:33:12.112Z,24.06
2023-01-28T18:36:00.784Z,24.18
2023-01-28T18:38:49.462Z,24.25
2023-01-28T18:41:38.047Z,24.31
2023-01-28T18:44:29.984Z,24.33
2023-01-28T18:47:18.740Z,24.41
2023-01-28T18:50:10.352Z,24.38
2023-01-28T18:52:58.939Z,24.49
2023-01-28T18:55:47.578Z,24.45
2023-01-28T18:58:36.235Z,24.58
2023-01-28T19:01:24.980Z,24.61
2023-01-28T19:04:14.070Z,24.68
2023-01-28T19:07:04.772Z,24.44
2023-01-28T19:09:54.510Z,24.41
2023-01-28T19:12:43.121Z,24.41
2023-01-28T19:15:31.817Z,24.50
2023-01-28T19:18:20.466Z,24.48
2023-01-28T19:21:09.417Z,24.49
2023-01-28T19:24:02.027Z,24.55
2023-01-28T19:26:50.614Z,24.56
2023-01-28T19:29:39.226Z,24.56
2023-01-28T19:32:28.833Z,24.65
2023-01-28T19:35:18.030Z,24.55
2023-01-28T19:38:09.374Z,24.61
2023-01-28T19:41:04.645Z,24.51
2023-01-28T19:43:53.736Z,24.58
2023-01-28T19:46:42.451Z,24.66
2023-01-28T19:49:31.595Z,24.70
2023-01-28T19:52:20.347Z,24.61
2023-01-28T19:55:10.299Z,24.70
2023-01-28T19:58:00.490Z,24.50
2023-01-28T20:00:49.383Z,24.57
2023-01-28T20:03:38.529Z,24.67
2023-01-28T20:06:28.397Z,24.72
2023-01-28T20:09:19.776Z,24.47
2023-01-28T20:12:11.848Z,24.55
2023-01-28T20:15:02.008Z,24.56
2023-01-28T20:17:50.728Z,24.62
2023-01-28T20:20:39.292Z,24.65
2023-01-28T20:23:28.443Z,24.66
2023-01-28T20:26:17.700Z,24.74
2023-01-28T20:29:07.855Z,24.72
2023-01-28T20:32:15.521Z,24.80
2023-01-28T20:35:05.418Z,24.86
2023-01-28T20:37:53.976Z,24.85
2023-01-28T20:40:43.902Z,24.81
2023-01-28T20:43:34.939Z,24.90
2023-01-28T20:46:25.491Z,24.89
2023-01-28T20:49:15.599Z,24.80
2023-01-28T20:52:04.371Z,24.87
2023-01-28T20:54:53.573Z,24.78
2023-01-28T20:57:43.825Z,24.79
2023-01-28T21:00:33.383Z,24.86
2023-01-28T21:03:22.284Z,24.85
2023-01-28T21:06:12.321Z,24.89
2023-01-28T21:09:01.004Z,24.87
2023-01-28T21:11:49.671Z,24.89
2023-01-28T21:14:38.277Z,24.83
2023-01-28T21:17:27.025Z,24.90
2023-01-28T21:20:15.912Z,24.87
2023-01-28T21:23:06.001Z,24.88
2023-01-28T21:25:54.679Z,24.86
2023-01-28T21:28:43.414Z,24.77
2023-01-28T21:31:32.297Z,24.82
2023-01-28T21:34:20.891Z,24.65
2023-01-28T21:37:09.624Z,24.71
2023-01-28T21:39:59.691Z,24.26
2023-01-28T21:42:48.388Z,24.11
2023-01-28T21:45:36.983Z,24.09
2023-01-28T21:48:25.867Z,24.06
2023-01-28T21:51:32.513Z,23.90
2023-01-28T21:54:21.270Z,23.79
2023-01-28T21:57:11.289Z,23.76
2023-01-28T22:00:00.211Z,23.81
2023-01-28T22:02:48.968Z,23.72
2023-01-28T22:05:37.526Z,23.70
2023-01-28T22:08:26.259Z,23.65
2023-01-28T22:11:14.950Z,23.63
2023-01-28T22:14:05.028Z,23.71
2023-01-28T22:16:53.947Z,23.66
2023-01-28T22:19:47.832Z,23.67
2023-01-28T22:22:36.562Z,23.68
2023-01-28T22:25:25.381Z,23.69
2023-01-28T22:28:14.011Z,23.72
2023-01-28T22:31:11.689Z,23.76
2023-01-28T22:34:00.851Z,23.69
2023-01-28T22:36:49.747Z,23.74
2023-01-28T22:39:38.368Z,23.74
2023-01-28T22:42:27.035Z,23.74
2023-01-28T22:45:15.693Z,23.78
2023-01-28T22:48:06.053Z,23.81
2023-01-28T22:50:55.528Z,23.83
2023-01-28T22:53:44.331Z,23.84
2023-01-28T22:56:33.233Z,23.88
2023-01-28T22:59:21.883Z,23.95
2023-01-28T23:02:10.576Z,23.88
2023-01-28T23:05:00.682Z,23.83
2023-01-28T23:07:49.461Z,23.81
2023-01-28T23:10:38.321Z,23.85
2023-01-28T23:13:47.988Z,23.80
2023-01-28T23:16:54.382Z,23.83
2023-01-28T23:20:00.747Z,23.86
2023-01-28T23:23:08.678Z,23.81
2023-01-28T23:25:57.345Z,23.85
2023-01-28T23:28:45.926Z,23.89
2023-01-28T23:31:34.562Z,23.82
2023-01-28T23:34:24.361Z,23.87
2023-01-28T23:37:14.171Z,23.79
2023-01-28T23:40:04.270Z,23.84
2023-01-28T23:42:53.025Z,23.79
2023-01-28T23:45:41.688Z,23.74
2023-01-28T23:48:30.550Z,23.73
2023-01-28T23:51:19.235Z,23.75
2023-01-28T23:54:08.114Z,23.73
2023-01-28T23:56:58.065Z,23.73
2023-01-28T23:59:46.653Z,23.67
